createdAt,value
2023-04-22T00:02:45.796Z,38.39
2023-04-22T00:05:34.716Z,38.42
2023-04-22T00:08:23.330Z,38.67
2023-04-22T00:11:11.991Z,38.61
2023-04-22T00:14:00.627Z,38.42
2023-04-22T00:16:50.521Z,38.22
2023-04-22T00:19:39.466Z,38.17
2023-04-22T00:22:28.197Z,38.61
2023-04-22T00:25:17.415Z,38.36
2023-04-22T00:28:06.167Z,38.27
2023-04-22T00:30:54.848Z,38.35
2023-04-22T00:33:44.831Z,38.34
2023-04-22T00:36:33.542Z,38.13
2023-04-22T00:39:22.174Z,38.04
2023-04-22T00:42:11.458Z,38.46
2023-04-22T00:45:00.612Z,38.44
2023-04-22T00:47:50.142Z,38.25
2023-04-22T00:50:40.226Z,38.54
2023-04-22T00:53:28.787Z,38.32
2023-04-22T00:56:17.495Z,38.29
2023-04-22T00:59:06.431Z,38.16
2023-04-22T01:01:55.753Z,38.29
2023-04-22T01:04:44.590Z,38.33
2023-04-22T01:07:34.646Z,38.25
2023-04-22T01:10:23.317Z,38.08
2023-04-22T01:13:11.948Z,38.13
2023-04-22T01:16:02.671Z,38.15
2023-04-22T01:18:52.888Z,38.08
2023-04-22T01:21:41.912Z,38.41
2023-04-22T01:24:31.952Z,38.13
2023-04-22T01:27:21.026Z,38.30
2023-04-22T01:30:11.041Z,38.07
2023-04-22T01:32:59.916Z,38.29
2023-04-22T01:35:48.550Z,38.00
2023-04-22T01:38:37.216Z,38.32
2023-04-22T01:41:27.276Z,38.38
2023-04-22T01:44:16.362Z,38.52
2023-04-22T01:47:05.287Z,38.09
2023-04-22T01:49:53.913Z,38.42
2023-04-22T01:52:42.720Z,38.38
2023-04-22T01:55:35.992Z,38.39
2023-04-22T01:58:26.030Z,37.96
2023-04-22T02:01:15.093Z,38.09
2023-04-22T02:04:03.680Z,38.03
2023-04-22T02:06:52.270Z,38.05
2023-04-22T02:09:41.168Z,37.99
2023-04-22T02:12:30.319Z,37.96
2023-04-22T02:15:20.262Z,38.54
2023-04-22T02:18:10.176Z,38.30
2023-04-22T02:20:58.812Z,38.08
2023-04-22T02:23:47.509Z,38.06
2023-04-22T02:26:36.089Z,38.17
2023-04-22T02:29:25.148Z,38.19
2023-04-22T02:32:17.081Z,37.81
2023-04-22T02:35:06.440Z,38.39
2023-04-22T02:37:55.227Z,38.00
2023-04-22T02:40:43.963Z,37.91
2023-04-22T02:43:32.537Z,38.24
2023-04-22T02:46:21.228Z,38.30
2023-04-22T02:49:11.226Z,38.30
2023-04-22T02:51:59.983Z,38.44
2023-04-22T02:54:48.535Z,38.35
2023-04-22T02:57:37.154Z,38.37
2023-04-22T03:00:25.903Z,38.31
2023-04-22T03:03:15.116Z,38.22
2023-04-22T03:06:07.510Z,38.26
2023-04-22T03:08:56.433Z,38.43
2023-04-22T03:11:45.127Z,38.02
2023-04-22T03:14:33.676Z,38.29
2023-04-22T03:17:22.471Z,37.98
2023-04-22T03:20:12.282Z,38.23
2023-04-22T03:23:02.178Z,37.96
2023-04-22T03:25:50.994Z,38.43
2023-04-22T03:28:39.553Z,37.88
2023-04-22T03:31:28.361Z,38.20
2023-04-22T03:34:17.410Z,38.13
2023-04-22T03:37:06.025Z,38.48
2023-04-22T03:39:56.363Z,38.26
2023-04-22T03:42:45.052Z,38.21
2023-04-22T03:45:33.811Z,37.99
2023-04-22T03:48:22.464Z,37.89
2023-04-22T03:51:11.201Z,37.77
2023-04-22T03:53:59.752Z,37.92
2023-04-22T03:56:49.718Z,37.96
2023-04-22T03:59:38.604Z,38.11
2023-04-22T04:02:27.432Z,38.30
2023-04-22T04:05:16.249Z,38.19
2023-04-22T04:08:05.094Z,37.81
2023-04-22T04:10:53.795Z,38.05
2023-04-22T04:13:43.737Z,38.34
2023-04-22T04:16:32.443Z,38.02
2023-04-22T04:19:21.506Z,38.24
2023-04-22T04:22:10.644Z,38.22
2023-04-22T04:24:59.287Z,37.87
2023-04-22T04:27:47.864Z,37.89
2023-04-22T04:30:37.810Z,37.99
2023-04-22T04:33:27.593Z,37.88
2023-04-22T04:36:16.149Z,38.06
2023-04-22T04:39:04.983Z,38.24
2023-04-22T04:41:55.208Z,38.30
2023-04-22T04:44:43.919Z,38.07
2023-04-22T04:47:34.133Z,37.70
2023-04-22T04:50:23.017Z,38.07
2023-04-22T04:53:11.935Z,37.70
2023-04-22T04:56:00.459Z,37.98
2023-04-22T04:58:49.172Z,38.29
2023-04-22T05:01:37.789Z,37.98
2023-04-22T05:04:28.211Z,37.98
2023-04-22T05:07:16.935Z,37.81
2023-04-22T05:10:06.455Z,38.12
2023-04-22T05:12:55.065Z,38.05
2023-04-22T05:15:43.743Z,37.83
2023-04-22T05:18:32.353Z,37.83
2023-04-22T05:21:22.427Z,37.70
2023-04-22T05:24:11.119Z,37.88
2023-04-22T05:26:59.900Z,37.80
2023-04-22T05:29:48.487Z,38.00
2023-04-22T05:32:37.157Z,37.88
2023-04-22T05:35:25.955Z,38.19
2023-04-22T05:38:16.233Z,37.95
2023-04-22T05:41:04.876Z,37.72
2023-04-22T05:43:54.050Z,38.18
2023-04-22T05:46:42.658Z,37.67
2023-04-22T05:49:31.259Z,37.67
2023-04-22T05:52:19.838Z,37.76
2023-04-22T05:55:10.405Z,37.85
2023-04-22T05:57:59.128Z,37.84
2023-04-22T06:00:47.777Z,38.21
2023-04-22T06:03:36.603Z,37.83
2023-04-22T06:06:26.025Z,38.00
2023-04-22T06:09:14.632Z,38.09
2023-04-22T06:12:04.598Z,38.03
2023-04-22T06:14:53.268Z,37.98
2023-04-22T06:17:42.060Z,37.95
2023-04-22T06:20:32.634Z,37.77
2023-04-22T06:23:21.668Z,37.78
2023-04-22T06:26:10.486Z,37.81
2023-04-22T06:29:00.622Z,37.90
2023-04-22T06:31:49.349Z,37.81
2023-04-22T06:34:38.699Z,37.63
2023-04-22T06:37:27.538Z,38.09
2023-04-22T06:40:16.841Z,37.84
2023-04-22T06:43:05.720Z,38.13
2023-04-22T06:45:55.692Z,37.78
2023-04-22T06:48:44.449Z,37.80
2023-04-22T06:51:33.027Z,37.70
2023-04-22T06:54:21.655Z,37.85
2023-04-22T06:57:10.337Z,37.87
2023-04-22T06:59:58.958Z,37.51
2023-04-22T07:02:49.023Z,38.13
2023-04-22T07:05:39.568Z,37.92
2023-04-22T07:08:28.511Z,37.96
2023-04-22T07:11:18.603Z,37.88
2023-04-22T07:14:07.252Z,37.86
2023-04-22T07:16:55.930Z,38.15
2023-04-22T07:19:45.936Z,37.81
2023-04-22T07:22:34.606Z,38.17
2023-04-22T07:25:23.598Z,38.39
2023-04-22T07:28:12.358Z,38.88
2023-04-22T07:31:00.933Z,39.07
2023-04-22T07:33:49.527Z,38.89
2023-04-22T07:36:39.698Z,38.68
2023-04-22T07:39:28.538Z,38.44
2023-04-22T07:42:17.237Z,37.66
2023-04-22T07:45:06.842Z,37.55
2023-04-22T07:47:55.523Z,37.71
2023-04-22T07:50:44.158Z,37.34
2023-04-22T07:53:34.446Z,37.40
2023-04-22T07:56:29.915Z,36.86
2023-04-22T07:59:18.587Z,37.14
2023-04-22T08:02:07.319Z,37.32
2023-04-22T08:04:56.045Z,37.58
2023-04-22T08:07:44.825Z,37.72
2023-04-22T08:10:35.065Z,37.21
2023-04-22T08:13:24.549Z,37.22
2023-04-22T08:16:33.671Z,37.45
2023-04-22T08:19:22.437Z,37.04
2023-04-22T08:22:13.690Z,37.72
2023-04-22T08:25:02.414Z,37.65
2023-04-22T08:27:52.766Z,37.30
2023-04-22T08:30:41.910Z,37.63
2023-04-22T08:33:31.234Z,37.42
2023-04-22T08:36:22.873Z,37.37
2023-04-22T08:39:12.466Z,37.67
2023-04-22T08:42:02.224Z,37.77
2023-04-22T08:44:52.824Z,37.84
2023-04-22T08:47:42.540Z,37.68
2023-04-22T08:50:32.902Z,37.75
2023-04-22T08:53:24.597Z,37.47
2023-04-22T08:56:14.483Z,37.80
2023-04-22T08:59:06.483Z,37.94
2023-04-22T09:01:58.406Z,37.84
2023-04-22T09:04:49.304Z,37.73
2023-04-22T09:07:41.304Z,37.80
2023-04-22T09:10:33.984Z,37.92
2023-04-22T09:13:24.606Z,38.08
2023-04-22T09:16:14.905Z,37.97
2023-04-22T09:19:05.890Z,37.89
2023-04-22T09:21:54.777Z,37.62
2023-04-22T09:24:47.257Z,38.20
2023-04-22T09:27:37.452Z,37.66
2023-04-22T09:30:29.715Z,36.47
2023-04-22T09:33:18.587Z,36.62
2023-04-22T09:36:11.909Z,37.01
2023-04-22T09:39:03.857Z,37.45
2023-04-22T09:41:56.686Z,36.63
2023-04-22T09:44:47.235Z,35.70
2023-04-22T09:47:37.514Z,35.04
2023-04-22T09:50:27.900Z,34.47
2023-04-22T09:53:19.756Z,34.85
2023-04-22T09:56:09.229Z,36.70
2023-04-22T09:58:57.936Z,36.08
2023-04-22T10:01:46.787Z,35.94
2023-04-22T10:04:35.428Z,36.49
2023-04-22T10:07:24.379Z,35.34
2023-04-22T10:10:14.945Z,35.33
2023-04-22T10:13:05.130Z,34.25
2023-04-22T10:15:55.115Z,34.96
2023-04-22T10:18:44.058Z,34.37
2023-04-22T10:21:33.982Z,32.94
2023-04-22T10:24:23.050Z,32.82
2023-04-22T10:27:13.211Z,33.80
2023-04-22T10:30:02.674Z,33.17
2023-04-22T10:32:51.284Z,32.75
2023-04-22T10:35:39.994Z,32.64
2023-04-22T10:38:28.637Z,32.57
2023-04-22T10:41:18.264Z,34.05
2023-04-22T10:44:09.566Z,32.88
2023-04-22T10:47:00.363Z,32.34
2023-04-22T10:49:51.126Z,31.99
2023-04-22T10:52:40.012Z,33.16
2023-04-22T10:55:52.588Z,32.78
2023-04-22T10:58:41.260Z,33.29
2023-04-22T11:01:31.313Z,33.50
2023-04-22T11:04:24.067Z,33.69
2023-04-22T11:07:16.183Z,33.29
2023-04-22T11:10:15.887Z,33.95
2023-04-22T11:13:07.158Z,33.86
2023-04-22T11:15:56.915Z,33.55
2023-04-22T11:18:48.962Z,34.89
2023-04-22T11:21:37.809Z,34.54
2023-04-22T11:24:26.422Z,34.63
2023-04-22T11:27:15.019Z,33.59
2023-04-22T11:30:03.994Z,33.71
2023-04-22T11:32:54.806Z,32.84
2023-04-22T11:35:45.296Z,33.15
2023-04-22T11:38:34.193Z,32.68
2023-04-22T11:41:23.655Z,33.88
2023-04-22T11:44:15.614Z,33.38
2023-04-22T11:47:04.217Z,32.87
2023-04-22T11:49:59.437Z,31.96
2023-04-22T11:52:52.956Z,32.68
2023-04-22T11:55:42.942Z,32.41
2023-04-22T11:58:31.760Z,32.71
2023-04-22T12:01:20.313Z,32.73
2023-04-22T12:04:12.760Z,32.96
2023-04-22T12:07:01.423Z,33.74
2023-04-22T12:09:55.389Z,33.72
2023-04-22T12:12:44.038Z,32.72
2023-04-22T12:15:43.830Z,33.79
2023-04-22T12:18:33.254Z,33.68
2023-04-22T12:21:23.707Z,32.94
2023-04-22T12:24:12.387Z,33.63
2023-04-22T12:27:03.405Z,33.36
2023-04-22T12:29:56.778Z,33.64
2023-04-22T12:32:45.891Z,33.29
2023-04-22T12:35:34.852Z,32.92
2023-04-22T12:38:23.450Z,32.80
2023-04-22T12:41:12.384Z,32.98
2023-04-22T12:44:02.419Z,32.96
2023-04-22T12:46:51.290Z,32.62
2023-04-22T12:49:40.437Z,32.54
2023-04-22T12:52:29.332Z,32.73
2023-04-22T12:55:18.062Z,32.70
2023-04-22T12:58:06.783Z,32.89
2023-04-22T13:00:56.759Z,33.09
2023-04-22T13:03:45.817Z,32.88
2023-04-22T13:06:34.644Z,32.86
2023-04-22T13:09:27.097Z,33.00
2023-04-22T13:12:15.826Z,32.64
2023-04-22T13:15:06.270Z,32.45
2023-04-22T13:17:56.450Z,32.82
2023-04-22T13:20:45.100Z,32.29
2023-04-22T13:23:33.853Z,32.73
2023-04-22T13:26:22.455Z,32.64
2023-04-22T13:29:14.160Z,33.44
2023-04-22T13:32:04.520Z,33.45
2023-04-22T13:34:55.116Z,32.74
2023-04-22T13:37:43.845Z,32.85
2023-04-22T13:40:32.559Z,32.96
2023-04-22T13:43:21.277Z,32.47
2023-04-22T13:46:09.922Z,32.80
2023-04-22T13:48:58.664Z,33.11
2023-04-22T13:51:48.670Z,32.93
2023-04-22T13:54:37.259Z,32.36
2023-04-22T13:57:26.141Z,32.11
2023-04-22T14:00:15.431Z,32.10
2023-04-22T14:03:04.209Z,32.04
2023-04-22T14:05:53.482Z,32.28
2023-04-22T14:08:43.742Z,32.10
2023-04-22T14:11:33.685Z,31.93
2023-04-22T14:14:22.308Z,31.02
2023-04-22T14:17:11.011Z,30.95
2023-04-22T14:19:59.644Z,29.94
2023-04-22T14:22:48.521Z,28.42
2023-04-22T14:25:38.913Z,27.55
2023-04-22T14:28:27.924Z,27.86
2023-04-22T14:31:16.586Z,27.09
2023-04-22T14:34:05.286Z,27.27
2023-04-22T14:36:56.792Z,27.37
2023-04-22T14:39:45.414Z,27.46
2023-04-22T14:42:35.573Z,27.26
2023-04-22T14:45:25.518Z,27.07
2023-04-22T14:48:14.235Z,26.88
2023-04-22T14:51:02.894Z,27.43
2023-04-22T14:53:51.575Z,26.84
2023-04-22T14:56:40.209Z,26.94
2023-04-22T14:59:30.360Z,26.88
2023-04-22T15:02:19.036Z,26.56
2023-04-22T15:05:08.161Z,26.90
2023-04-22T15:07:57.737Z,27.36
2023-04-22T15:10:46.352Z,27.40
2023-04-22T15:13:35.040Z,28.07
2023-04-22T15:16:25.188Z,28.14
2023-04-22T15:19:13.871Z,27.50
2023-04-22T15:22:02.539Z,27.33
2023-04-22T15:24:51.171Z,27.65
2023-04-22T15:27:40.709Z,27.47
2023-04-22T15:30:32.081Z,27.30
2023-04-22T15:33:22.027Z,27.02
2023-04-22T15:36:10.815Z,27.54
2023-04-22T15:38:59.614Z,27.85
2023-04-22T15:41:48.311Z,27.43
2023-04-22T15:44:38.119Z,27.59
2023-04-22T15:47:28.822Z,27.66
2023-04-22T15:50:19.317Z,27.34
2023-04-22T15:53:07.989Z,26.87
2023-04-22T15:55:56.740Z,26.98
2023-04-22T15:58:45.587Z,27.45
2023-04-22T16:01:34.556Z,27.12
2023-04-22T16:04:23.431Z,27.65
2023-04-22T16:07:13.729Z,28.04
2023-04-22T16:10:02.485Z,27.93
2023-04-22T16:12:51.902Z,27.31
2023-04-22T16:15:40.629Z,27.76
2023-04-22T16:18:29.414Z,28.07
2023-04-22T16:21:18.364Z,28.06
2023-04-22T16:24:08.849Z,28.32
2023-04-22T16:26:59.069Z,28.65
2023-04-22T16:29:47.819Z,28.33
2023-04-22T16:32:37.111Z,28.28
2023-04-22T16:35:25.721Z,28.62
2023-04-22T16:38:19.113Z,28.67
2023-04-22T16:41:11.440Z,28.79
2023-04-22T16:44:00.971Z,28.75
2023-04-22T16:46:49.620Z,29.37
2023-04-22T16:49:38.590Z,29.22
2023-04-22T16:52:27.525Z,28.97
2023-04-22T16:55:16.378Z,28.87
2023-04-22T16:58:06.484Z,29.01
2023-04-22T17:00:55.278Z,28.88
2023-04-22T17:03:44.034Z,28.98
2023-04-22T17:06:33.577Z,29.07
2023-04-22T17:09:22.187Z,29.36
2023-04-22T17:12:10.856Z,29.39
2023-04-22T17:15:00.986Z,29.49
2023-04-22T17:17:49.883Z,29.38
2023-04-22T17:20:39.148Z,29.14
2023-04-22T17:23:27.981Z,29.32
2023-04-22T17:26:16.666Z,29.50
2023-04-22T17:29:05.376Z,29.33
2023-04-22T17:31:55.476Z,29.50
2023-04-22T17:34:44.250Z,29.61
2023-04-22T17:37:32.984Z,29.27
2023-04-22T17:40:21.951Z,29.54
2023-04-22T17:43:10.591Z,29.32
2023-04-22T17:45:59.336Z,29.80
2023-04-22T17:48:49.530Z,29.64
2023-04-22T17:51:38.751Z,30.20
2023-04-22T17:54:27.469Z,30.18
2023-04-22T17:57:16.388Z,29.95
2023-04-22T18:00:05.699Z,29.75
2023-04-22T18:02:54.973Z,30.08
2023-04-22T18:05:45.099Z,30.39
2023-04-22T18:08:33.734Z,30.33
2023-04-22T18:11:22.424Z,30.15
2023-04-22T18:14:11.481Z,30.39
2023-04-22T18:17:00.332Z,30.42
2023-04-22T18:19:51.017Z,30.05
2023-04-22T18:22:41.354Z,30.83
2023-04-22T18:25:33.171Z,30.59
2023-04-22T18:28:21.968Z,30.79
2023-04-22T18:31:10.668Z,30.93
2023-04-22T18:33:59.432Z,30.98
2023-04-22T18:36:48.137Z,30.85
2023-04-22T18:39:39.595Z,31.05
2023-04-22T18:42:28.978Z,31.18
2023-04-22T18:45:17.790Z,31.22
2023-04-22T18:48:06.554Z,31.56
2023-04-22T18:50:55.411Z,31.75
2023-04-22T18:53:44.128Z,32.63
2023-04-22T18:56:34.418Z,32.38
2023-04-22T18:59:23.078Z,32.58
2023-04-22T19:02:14.060Z,32.78
2023-04-22T19:05:02.706Z,32.78
2023-04-22T19:07:51.267Z,32.66
2023-04-22T19:10:40.269Z,33.08
2023-04-22T19:13:30.523Z,33.17
2023-04-22T19:16:19.270Z,33.21
2023-04-22T19:19:08.102Z,32.95
2023-04-22T19:21:56.802Z,33.50
2023-04-22T19:24:45.881Z,33.34
2023-04-22T19:27:35.012Z,33.11
2023-04-22T19:30:26.487Z,32.85
2023-04-22T19:33:15.643Z,32.77
2023-04-22T19:36:06.212Z,32.89
2023-04-22T19:38:54.825Z,32.91
2023-04-22T19:41:43.503Z,32.99
2023-04-22T19:44:32.217Z,32.93
2023-04-22T19:47:22.661Z,33.31
2023-04-22T19:50:11.942Z,33.12
2023-04-22T19:53:04.345Z,33.06
2023-04-22T19:55:54.254Z,33.41
2023-04-22T19:58:44.426Z,33.27
2023-04-22T20:01:33.969Z,33.51
2023-04-22T20:04:25.070Z,33.22
2023-04-22T20:07:16.415Z,33.49
2023-04-22T20:10:08.350Z,33.34
2023-04-22T20:12:57.281Z,33.40
2023-04-22T20:15:46.309Z,33.34
2023-04-22T20:18:35.367Z,33.52
2023-04-22T20:21:25.762Z,34.03
2023-04-22T20:24:19.335Z,33.89
2023-04-22T20:27:08.644Z,34.20
2023-04-22T20:29:57.827Z,34.64
2023-04-22T20:32:46.715Z,34.78
2023-04-22T20:35:36.583Z,34.78
2023-04-22T20:38:30.968Z,34.79
2023-04-22T20:41:20.148Z,35.16
2023-04-22T20:44:08.948Z,34.89
2023-04-22T20:46:58.840Z,34.81
2023-04-22T20:49:47.485Z,35.07
2023-04-22T20:52:36.490Z,34.90
2023-04-22T20:55:26.531Z,35.11
2023-04-22T20:58:15.758Z,35.35
2023-04-22T21:01:04.405Z,35.15
2023-04-22T21:03:57.627Z,34.59
2023-04-22T21:06:46.703Z,34.56
2023-04-22T21:09:35.629Z,34.71
2023-04-22T21:12:27.258Z,33.95
2023-04-22T21:15:16.784Z,34.38
2023-04-22T21:18:07.344Z,34.49
2023-04-22T21:20:58.112Z,34.56
2023-04-22T21:23:47.408Z,34.92
2023-04-22T21:26:40.109Z,34.78
2023-04-22T21:29:31.213Z,34.58
2023-04-22T21:32:20.770Z,34.58
2023-04-22T21:35:10.268Z,34.83
2023-04-22T21:37:58.992Z,34.55
2023-04-22T21:40:50.301Z,34.37
2023-04-22T21:43:38.902Z,34.87
2023-04-22T21:46:28.888Z,34.82
2023-04-22T21:49:18.360Z,34.98
2023-04-22T21:52:07.006Z,35.24
2023-04-22T21:54:55.573Z,35.17
2023-04-22T21:57:44.252Z,35.49
2023-04-22T22:00:33.301Z,35.30
2023-04-22T22:03:23.340Z,35.51
2023-04-22T22:06:12.056Z,35.57
2023-04-22T22:09:00.997Z,35.47
2023-04-22T22:11:49.538Z,35.42
2023-04-22T22:14:39.119Z,35.50
2023-04-22T22:17:28.039Z,35.73
2023-04-22T22:20:20.331Z,35.70
2023-04-22T22:23:09.178Z,35.71
2023-04-22T22:25:57.801Z,35.79
2023-04-22T22:28:46.467Z,35.72
2023-04-22T22:31:35.151Z,35.89
2023-04-22T22:34:26.712Z,35.87
2023-04-22T22:37:16.765Z,35.96
2023-04-22T22:40:05.748Z,35.86
2023-04-22T22:42:54.492Z,36.07
2023-04-22T22:45:43.477Z,36.03
2023-04-22T22:48:32.711Z,36.16
2023-04-22T22:51:21.892Z,36.31
2023-04-22T22:54:12.111Z,36.22
2023-04-22T22:57:01.673Z,36.21
2023-04-22T22:59:50.642Z,36.50
2023-04-22T23:02:39.460Z,36.25
2023-04-22T23:05:29.072Z,36.32
2023-04-22T23:08:17.760Z,36.25
2023-04-22T23:11:07.770Z,36.25
2023-04-22T23:13:56.584Z,36.47
2023-04-22T23:16:45.320Z,36.52
2023-04-22T23:19:34.494Z,36.47
2023-04-22T23:22:23.775Z,36.72
2023-04-22T23:25:14.020Z,36.58
2023-04-22T23:28:05.089Z,36.62
2023-04-22T23:30:56.708Z,36.59
2023-04-22T23:33:46.780Z,36.79
2023-04-22T23:36:37.503Z,37.00
2023-04-22T23:39:26.266Z,37.02
2023-04-22T23:42:14.888Z,36.99
2023-04-22T23:45:05.256Z,37.12
2023-04-22T23:47:53.951Z,37.08
2023-04-22T23:50:42.745Z,37.08
2023-04-22T23:53:31.361Z,37.08
2023-04-22T23:56:22.900Z,37.12
2023-04-22T23:59:12.115Z,36.98
